createdAt,value
2022-09-30T00:01:29.546Z,28.48
2022-09-30T00:03:57.265Z,27.58
2022-09-30T00:06:24.904Z,26.38
2022-09-30T00:08:52.222Z,26.55
2022-09-30T00:11:21.414Z,26.42
2022-09-30T00:13:49.341Z,26.38
2022-09-30T00:16:16.705Z,27.02
2022-09-30T00:18:44.020Z,25.67
2022-09-30T00:21:11.810Z,26.92
2022-09-30T00:23:39.162Z,27.95
2022-09-30T00:26:08.152Z,26.48
2022-09-30T00:28:35.369Z,26.17
2022-09-30T00:31:03.351Z,26.38
2022-09-30T00:33:30.514Z,28.00
2022-09-30T00:35:57.698Z,31.33
2022-09-30T00:38:24.865Z,31.50
2022-09-30T00:40:52.005Z,35.60
2022-09-30T00:43:38.824Z,42.85
2022-09-30T00:46:06.339Z,38.60
2022-09-30T00:48:37.065Z,35.88
2022-09-30T00:51:04.277Z,34.78
2022-09-30T00:53:34.562Z,34.72
2022-09-30T00:56:05.772Z,37.63
2022-09-30T00:58:35.953Z,37.47
2022-09-30T01:01:03.393Z,37.17
2022-09-30T01:03:34.817Z,35.08
2022-09-30T01:06:01.975Z,31.95
2022-09-30T01:08:29.165Z,29.02
2022-09-30T01:10:56.338Z,32.50
2022-09-30T01:13:23.795Z,33.13
2022-09-30T01:16:06.814Z,30.40
2022-09-30T01:18:46.361Z,29.70
2022-09-30T01:21:19.732Z,27.83
2022-09-30T01:23:47.207Z,29.25
2022-09-30T01:26:17.221Z,27.40
2022-09-30T01:28:53.520Z,29.13
2022-09-30T01:31:25.131Z,30.08
2022-09-30T01:33:52.330Z,29.75
2022-09-30T01:36:22.342Z,33.88
2022-09-30T01:39:04.286Z,33.85
2022-09-30T01:41:42.302Z,34.00
2022-09-30T01:44:12.990Z,31.92
2022-09-30T01:46:59.121Z,30.80
2022-09-30T01:49:38.585Z,30.88
2022-09-30T01:52:14.375Z,31.33
2022-09-30T01:54:54.314Z,29.88
2022-09-30T01:57:23.031Z,30.27
2022-09-30T01:59:57.858Z,29.35
2022-09-30T02:02:25.952Z,31.05
2022-09-30T02:04:55.867Z,31.50
2022-09-30T02:07:27.606Z,33.72
2022-09-30T02:10:01.733Z,33.33
2022-09-30T02:12:29.266Z,31.80
2022-09-30T02:15:12.986Z,31.73
2022-09-30T02:17:46.829Z,34.65
2022-09-30T02:20:14.971Z,33.80
2022-09-30T02:22:47.082Z,33.50
2022-09-30T02:25:22.115Z,34.92
2022-09-30T02:27:51.730Z,34.03
2022-09-30T02:30:18.883Z,33.88
2022-09-30T02:32:50.143Z,33.05
2022-09-30T02:35:26.864Z,34.45
2022-09-30T02:37:55.284Z,36.00
2022-09-30T02:40:28.631Z,36.28
2022-09-30T02:42:55.784Z,35.65
2022-09-30T02:45:23.175Z,37.25
2022-09-30T02:48:07.157Z,35.42
2022-09-30T02:50:35.975Z,36.67
2022-09-30T02:53:06.264Z,37.58
2022-09-30T02:55:49.663Z,37.60
2022-09-30T02:58:21.396Z,36.97
2022-09-30T03:00:49.124Z,35.38
2022-09-30T03:03:17.805Z,33.97
2022-09-30T03:05:45.247Z,34.15
2022-09-30T03:08:12.599Z,34.13
2022-09-30T03:10:39.762Z,37.15
2022-09-30T03:13:15.885Z,41.80
2022-09-30T03:15:43.210Z,46.10
2022-09-30T03:18:16.171Z,41.58
2022-09-30T03:21:01.961Z,40.53
2022-09-30T03:23:36.295Z,37.58
2022-09-30T03:26:13.690Z,32.15
2022-09-30T03:28:44.787Z,32.28
2022-09-30T03:31:35.340Z,33.33
2022-09-30T03:34:11.516Z,32.67
2022-09-30T03:36:42.754Z,32.60
2022-09-30T03:39:16.067Z,30.13
2022-09-30T03:41:54.723Z,31.00
2022-09-30T03:44:26.263Z,30.10
2022-09-30T03:47:04.732Z,29.42
2022-09-30T03:49:33.252Z,29.77
2022-09-30T03:52:00.393Z,30.42
2022-09-30T03:54:27.580Z,30.83
2022-09-30T03:56:54.711Z,28.90
2022-09-30T03:59:25.673Z,27.63
2022-09-30T04:01:53.773Z,28.20
2022-09-30T04:04:20.989Z,28.45
2022-09-30T04:06:48.183Z,28.27
2022-09-30T04:09:15.559Z,33.38
2022-09-30T04:11:43.014Z,33.55
2022-09-30T04:14:10.246Z,29.35
2022-09-30T04:16:37.485Z,27.90
2022-09-30T04:19:04.682Z,29.77
2022-09-30T04:21:31.861Z,29.00
2022-09-30T04:23:59.049Z,30.23
2022-09-30T04:26:26.285Z,31.73
2022-09-30T04:28:53.423Z,32.10
2022-09-30T04:31:21.474Z,32.38
2022-09-30T04:33:48.772Z,29.50
2022-09-30T04:36:15.902Z,35.40
2022-09-30T04:38:43.117Z,33.58
2022-09-30T04:41:12.146Z,32.47
2022-09-30T04:43:39.294Z,32.00
2022-09-30T04:46:06.729Z,31.75
2022-09-30T04:48:33.879Z,33.03
2022-09-30T04:51:01.117Z,32.53
2022-09-30T04:53:28.408Z,31.73
2022-09-30T04:56:01.809Z,31.02
2022-09-30T04:58:33.379Z,30.60
2022-09-30T05:01:03.947Z,30.55
2022-09-30T05:03:31.168Z,30.48
2022-09-30T05:05:58.298Z,30.88
2022-09-30T05:08:25.622Z,30.52
2022-09-30T05:10:57.348Z,31.65
2022-09-30T05:13:25.383Z,32.25
2022-09-30T05:15:52.655Z,33.65
2022-09-30T05:18:20.673Z,30.67
2022-09-30T05:20:51.220Z,31.77
2022-09-30T05:23:18.922Z,33.40
2022-09-30T05:25:46.371Z,31.73
2022-09-30T05:28:13.698Z,32.22
2022-09-30T05:30:42.057Z,32.97
2022-09-30T05:33:09.188Z,31.98
2022-09-30T05:35:36.422Z,31.70
2022-09-30T05:38:04.719Z,32.90
2022-09-30T05:40:32.188Z,32.05
2022-09-30T05:42:59.615Z,32.33
2022-09-30T05:45:27.057Z,31.67
2022-09-30T05:47:54.536Z,30.17
2022-09-30T05:50:21.873Z,29.45
2022-09-30T05:52:49.607Z,29.27
2022-09-30T05:55:17.419Z,28.50
2022-09-30T05:57:48.040Z,27.27
2022-09-30T06:00:15.244Z,25.80
2022-09-30T06:02:42.589Z,26.13
2022-09-30T06:05:09.966Z,26.83
2022-09-30T06:07:37.277Z,27.30
2022-09-30T06:10:04.832Z,24.15
2022-09-30T06:12:31.967Z,24.83
2022-09-30T06:14:59.126Z,23.88
2022-09-30T06:17:26.337Z,23.25
2022-09-30T06:19:53.525Z,21.20
2022-09-30T06:22:20.664Z,22.20
2022-09-30T06:24:50.437Z,22.10
2022-09-30T06:27:22.117Z,21.80
2022-09-30T06:29:49.497Z,22.92
2022-09-30T06:32:17.372Z,20.35
2022-09-30T06:34:44.790Z,20.27
2022-09-30T06:37:13.870Z,19.35
2022-09-30T06:39:41.813Z,19.33
2022-09-30T06:42:08.998Z,20.17
2022-09-30T06:44:49.267Z,20.02
2022-09-30T06:47:25.091Z,19.67
2022-09-30T06:49:54.537Z,20.25
2022-09-30T06:52:22.263Z,20.00
2022-09-30T06:54:51.226Z,18.85
2022-09-30T06:57:22.538Z,20.42
2022-09-30T06:59:50.743Z,21.80
2022-09-30T07:02:17.997Z,19.90
2022-09-30T07:04:45.268Z,16.77
2022-09-30T07:07:12.472Z,16.50
2022-09-30T07:09:39.647Z,16.55
2022-09-30T07:12:07.477Z,14.32
2022-09-30T07:14:35.939Z,15.43
2022-09-30T07:17:04.668Z,17.70
2022-09-30T07:19:32.111Z,18.15
2022-09-30T07:22:19.214Z,17.58
2022-09-30T07:24:46.375Z,17.48
2022-09-30T07:27:13.597Z,18.58
2022-09-30T07:30:07.197Z,19.15
2022-09-30T07:32:28.644Z,16.55
2022-09-30T07:34:55.823Z,17.33
2022-09-30T07:37:23.025Z,18.08
2022-09-30T07:39:50.220Z,18.02
2022-09-30T07:42:22.652Z,18.30
2022-09-30T07:44:52.224Z,18.15
2022-09-30T07:47:19.554Z,19.13
2022-09-30T07:49:46.726Z,19.60
2022-09-30T07:52:13.969Z,17.30
2022-09-30T07:54:45.286Z,17.38
2022-09-30T07:57:15.463Z,16.35
2022-09-30T07:59:42.715Z,15.52
2022-09-30T08:02:12.196Z,14.98
2022-09-30T08:04:43.655Z,15.45
2022-09-30T08:07:11.684Z,14.00
2022-09-30T08:09:38.929Z,14.05
2022-09-30T08:12:06.184Z,14.45
2022-09-30T08:14:33.557Z,13.02
2022-09-30T08:17:00.950Z,14.43
2022-09-30T08:19:28.886Z,15.45
2022-09-30T08:21:56.245Z,20.95
2022-09-30T08:24:24.024Z,17.95
2022-09-30T08:26:51.606Z,16.25
2022-09-30T08:29:24.999Z,17.70
2022-09-30T08:32:03.232Z,18.25
2022-09-30T08:34:33.909Z,16.95
2022-09-30T08:37:03.797Z,16.90
2022-09-30T08:39:34.857Z,38.67
2022-09-30T08:42:08.715Z,74.05
2022-09-30T08:44:48.244Z,42.90
2022-09-30T08:47:15.384Z,30.17
2022-09-30T08:50:01.013Z,28.63
2022-09-30T08:52:30.660Z,48.75
2022-09-30T08:55:16.367Z,19.38
2022-09-30T08:57:47.351Z,27.63
2022-09-30T09:00:16.263Z,22.58
2022-09-30T09:02:45.422Z,17.05
2022-09-30T09:05:17.184Z,17.75
2022-09-30T09:08:02.714Z,19.38
2022-09-30T09:10:35.510Z,23.67
2022-09-30T09:13:02.728Z,13.40
2022-09-30T09:15:32.005Z,17.52
2022-09-30T09:18:22.565Z,16.08
2022-09-30T09:21:00.566Z,13.05
2022-09-30T09:23:28.570Z,21.50
2022-09-30T09:25:56.043Z,24.52
2022-09-30T09:28:26.169Z,16.65
2022-09-30T09:30:54.239Z,19.70
2022-09-30T09:33:23.055Z,14.55
2022-09-30T09:35:56.631Z,14.15
2022-09-30T09:38:30.581Z,11.75
2022-09-30T09:41:13.683Z,14.00
2022-09-30T09:43:49.178Z,12.20
2022-09-30T09:46:19.270Z,11.82
2022-09-30T09:48:46.936Z,12.85
2022-09-30T09:51:20.547Z,13.75
2022-09-30T09:53:58.176Z,13.75
2022-09-30T09:56:32.101Z,12.95
2022-09-30T09:59:10.104Z,12.98
2022-09-30T10:01:38.502Z,11.55
2022-09-30T10:04:16.301Z,18.70
2022-09-30T10:06:53.370Z,20.20
2022-09-30T10:09:24.448Z,20.67
2022-09-30T10:11:51.682Z,19.55
2022-09-30T10:14:19.370Z,15.45
2022-09-30T10:16:46.562Z,15.48
2022-09-30T10:19:19.963Z,14.52
2022-09-30T10:21:47.112Z,16.08
2022-09-30T10:24:30.187Z,24.20
2022-09-30T10:26:57.350Z,15.88
2022-09-30T10:29:26.741Z,13.55
2022-09-30T10:31:57.673Z,18.30
2022-09-30T10:34:27.241Z,15.43
2022-09-30T10:36:54.437Z,17.15
2022-09-30T10:39:25.101Z,15.25
2022-09-30T10:41:53.022Z,17.60
2022-09-30T10:44:23.410Z,15.18
2022-09-30T10:46:51.210Z,16.42
2022-09-30T10:49:25.153Z,15.35
2022-09-30T10:51:52.277Z,15.63
2022-09-30T10:54:33.924Z,13.38
2022-09-30T10:57:04.279Z,17.70
2022-09-30T10:59:35.738Z,19.38
2022-09-30T11:02:18.172Z,18.52
2022-09-30T11:05:00.224Z,16.30
2022-09-30T11:07:40.833Z,10.50
2022-09-30T11:10:08.029Z,11.73
2022-09-30T11:13:04.436Z,15.85
2022-09-30T11:15:33.338Z,14.30
2022-09-30T11:18:01.554Z,13.75
2022-09-30T11:20:30.353Z,13.00
2022-09-30T11:23:12.522Z,12.20
2022-09-30T11:25:41.585Z,16.08
2022-09-30T11:28:27.791Z,11.98
2022-09-30T11:30:55.028Z,12.48
2022-09-30T11:33:25.188Z,13.73
2022-09-30T11:35:56.259Z,14.32
2022-09-30T11:38:26.520Z,14.32
2022-09-30T11:40:59.692Z,13.60
2022-09-30T11:43:42.526Z,13.40
2022-09-30T11:46:12.783Z,13.70
2022-09-30T11:48:42.299Z,12.93
2022-09-30T11:51:09.428Z,11.45
2022-09-30T11:53:54.655Z,12.10
2022-09-30T11:56:21.779Z,12.38
2022-09-30T11:58:50.076Z,13.00
2022-09-30T12:01:17.871Z,15.18
2022-09-30T12:03:46.308Z,17.38
2022-09-30T12:06:22.692Z,7.75
2022-09-30T12:08:50.683Z,7.40
2022-09-30T12:11:20.331Z,8.40
2022-09-30T12:13:51.949Z,7.95
2022-09-30T12:16:20.728Z,8.20
2022-09-30T12:18:49.813Z,24.75
2022-09-30T12:21:24.205Z,23.58
2022-09-30T12:23:59.671Z,11.82
2022-09-30T12:26:27.117Z,10.52
2022-09-30T12:29:17.142Z,10.27
2022-09-30T12:31:51.987Z,8.55
2022-09-30T12:34:19.178Z,9.52
2022-09-30T12:36:52.637Z,13.68
2022-09-30T12:39:38.609Z,10.05
2022-09-30T12:42:15.395Z,9.73
2022-09-30T12:44:52.646Z,11.75
2022-09-30T12:47:26.197Z,11.05
2022-09-30T12:49:53.853Z,18.30
2022-09-30T12:52:21.126Z,10.30
2022-09-30T12:54:49.742Z,11.52
2022-09-30T12:57:18.877Z,17.25
2022-09-30T12:59:53.497Z,15.10
2022-09-30T13:02:27.234Z,14.10
2022-09-30T13:04:54.489Z,15.10
2022-09-30T13:07:22.732Z,24.42
2022-09-30T13:09:56.634Z,17.77
2022-09-30T13:12:42.204Z,17.88
2022-09-30T13:15:28.431Z,10.73
2022-09-30T13:17:55.713Z,7.30
2022-09-30T13:20:42.230Z,7.22
2022-09-30T13:23:09.987Z,7.22
2022-09-30T13:25:56.185Z,6.53
2022-09-30T13:28:24.527Z,6.40
2022-09-30T13:30:51.735Z,11.68
2022-09-30T13:33:32.641Z,13.75
2022-09-30T13:36:00.164Z,14.07
2022-09-30T13:38:37.394Z,14.05
2022-09-30T13:41:05.568Z,11.60
2022-09-30T13:43:40.627Z,8.88
2022-09-30T13:46:17.205Z,7.97
2022-09-30T13:48:48.887Z,7.68
2022-09-30T13:51:16.353Z,7.80
2022-09-30T13:53:47.158Z,8.05
2022-09-30T13:56:25.177Z,9.05
2022-09-30T13:59:11.259Z,8.23
2022-09-30T14:01:38.925Z,8.43
2022-09-30T14:04:23.310Z,8.77
2022-09-30T14:07:10.605Z,8.25
2022-09-30T14:10:06.831Z,8.48
2022-09-30T14:13:01.333Z,7.85
2022-09-30T14:15:44.934Z,7.88
2022-09-30T14:18:33.539Z,7.95
2022-09-30T14:21:21.138Z,7.68
2022-09-30T14:23:56.763Z,9.35
2022-09-30T14:26:26.927Z,10.27
2022-09-30T14:28:54.062Z,14.25
2022-09-30T14:31:21.917Z,14.30
2022-09-30T14:33:49.574Z,14.90
2022-09-30T14:36:17.281Z,14.02
2022-09-30T14:38:45.413Z,20.80
2022-09-30T14:41:17.589Z,20.55
2022-09-30T14:43:45.046Z,21.80
2022-09-30T14:46:27.360Z,25.13
2022-09-30T14:48:55.137Z,18.50
2022-09-30T14:51:23.862Z,15.90
2022-09-30T14:53:54.392Z,10.90
2022-09-30T14:56:22.734Z,13.60
2022-09-30T14:58:53.294Z,15.68
2022-09-30T15:01:26.121Z,21.80
2022-09-30T15:03:55.488Z,16.65
2022-09-30T15:06:22.801Z,21.70
2022-09-30T15:08:50.019Z,12.95
2022-09-30T15:11:21.309Z,16.02
2022-09-30T15:13:49.300Z,12.43
2022-09-30T15:16:23.354Z,12.02
2022-09-30T15:18:50.511Z,11.80
2022-09-30T15:21:17.807Z,11.50
2022-09-30T15:23:54.665Z,13.85
2022-09-30T15:26:22.693Z,14.52
2022-09-30T15:28:49.982Z,21.27
2022-09-30T15:31:24.854Z,23.90
2022-09-30T15:34:08.258Z,26.75
2022-09-30T15:36:35.937Z,30.35
2022-09-30T15:39:03.111Z,27.83
2022-09-30T15:41:30.261Z,31.83
2022-09-30T15:44:00.503Z,44.13
2022-09-30T15:46:28.852Z,52.22
2022-09-30T15:48:57.022Z,46.78
2022-09-30T15:51:24.200Z,39.17
2022-09-30T15:54:00.330Z,39.72
2022-09-30T15:56:37.119Z,33.42
2022-09-30T15:59:11.520Z,18.45
2022-09-30T16:01:38.772Z,17.63
2022-09-30T16:04:18.360Z,24.10
2022-09-30T16:06:49.316Z,20.30
2022-09-30T16:09:19.482Z,19.23
2022-09-30T16:12:03.011Z,20.75
2022-09-30T16:14:30.947Z,27.48
2022-09-30T16:16:59.109Z,39.05
2022-09-30T16:19:26.388Z,56.63
2022-09-30T16:21:54.796Z,95.05
2022-09-30T16:24:21.934Z,66.07
2022-09-30T16:26:52.766Z,52.28
2022-09-30T16:29:19.907Z,36.97
2022-09-30T16:31:47.498Z,33.70
2022-09-30T16:34:19.204Z,35.67
2022-09-30T16:36:46.335Z,35.80
2022-09-30T16:39:13.629Z,45.85
2022-09-30T16:41:41.094Z,47.58
2022-09-30T16:44:08.228Z,40.75
2022-09-30T16:46:35.535Z,37.28
2022-09-30T16:49:06.620Z,31.83
2022-09-30T16:51:33.849Z,31.25
2022-09-30T16:54:00.973Z,33.58
2022-09-30T16:56:28.323Z,27.13
2022-09-30T16:58:55.667Z,26.33
2022-09-30T17:01:23.544Z,39.05
2022-09-30T17:03:50.902Z,27.33
2022-09-30T17:06:19.032Z,82.10
2022-09-30T17:08:46.202Z,149.70
2022-09-30T17:11:13.366Z,91.20
2022-09-30T17:13:40.879Z,77.95
2022-09-30T17:16:08.570Z,117.90
2022-09-30T17:18:35.804Z,80.20
2022-09-30T17:21:02.997Z,48.25
2022-09-30T17:23:30.126Z,52.95
2022-09-30T17:25:58.078Z,34.42
2022-09-30T17:28:25.258Z,41.13
2022-09-30T17:30:52.440Z,31.20
2022-09-30T17:33:20.021Z,35.22
2022-09-30T17:35:47.244Z,37.83
2022-09-30T17:38:14.440Z,35.85
2022-09-30T17:41:00.509Z,38.53
2022-09-30T17:43:27.664Z,30.88
2022-09-30T17:45:55.626Z,31.42
2022-09-30T17:48:22.934Z,41.83
2022-09-30T17:50:55.852Z,37.47
2022-09-30T17:53:23.283Z,32.90
2022-09-30T17:56:00.872Z,31.35
2022-09-30T17:58:29.124Z,33.47
2022-09-30T18:00:59.915Z,32.72
2022-09-30T18:03:28.274Z,40.80
2022-09-30T18:05:58.943Z,36.08
2022-09-30T18:08:26.265Z,38.33
2022-09-30T18:10:53.508Z,33.75
2022-09-30T18:13:20.694Z,31.38
2022-09-30T18:15:47.857Z,29.52
2022-09-30T18:18:15.034Z,34.28
2022-09-30T18:20:45.523Z,33.03
2022-09-30T18:23:13.033Z,34.28
2022-09-30T18:25:43.091Z,46.22
2022-09-30T18:28:10.664Z,33.25
2022-09-30T18:30:38.497Z,32.40
2022-09-30T18:33:07.103Z,35.80
2022-09-30T18:35:35.090Z,36.72
2022-09-30T18:38:02.323Z,42.78
2022-09-30T18:40:29.857Z,49.55
2022-09-30T18:43:01.921Z,41.60
2022-09-30T18:45:32.949Z,35.17
2022-09-30T18:48:00.499Z,30.52
2022-09-30T18:50:28.419Z,29.35
2022-09-30T18:52:55.837Z,29.20
2022-09-30T18:55:23.031Z,30.63
2022-09-30T18:57:53.446Z,29.80
2022-09-30T19:00:20.686Z,29.15
2022-09-30T19:02:47.850Z,55.38
2022-09-30T19:05:15.209Z,36.05
2022-09-30T19:08:00.911Z,47.80
2022-09-30T19:10:28.087Z,48.00
2022-09-30T19:12:55.236Z,37.55
2022-09-30T19:15:23.584Z,37.90
2022-09-30T19:17:53.158Z,30.95
2022-09-30T19:20:20.361Z,32.03
2022-09-30T19:22:48.137Z,34.78
2022-09-30T19:25:15.911Z,33.75
2022-09-30T19:27:43.105Z,27.23
2022-09-30T19:30:10.817Z,25.58
2022-09-30T19:32:38.070Z,38.42
2022-09-30T19:35:06.800Z,29.95
2022-09-30T19:37:34.427Z,36.75
2022-09-30T19:40:15.227Z,30.45
2022-09-30T19:42:47.294Z,27.80
2022-09-30T19:45:16.704Z,23.63
2022-09-30T19:47:44.421Z,21.77
2022-09-30T19:50:11.636Z,20.52
2022-09-30T19:52:49.172Z,20.58
2022-09-30T19:55:20.999Z,20.27
2022-09-30T19:57:48.267Z,20.40
2022-09-30T20:00:15.428Z,21.63
2022-09-30T20:02:42.558Z,20.00
2022-09-30T20:05:10.029Z,14.93
2022-09-30T20:07:37.173Z,12.90
2022-09-30T20:10:04.453Z,11.45
2022-09-30T20:12:31.644Z,11.05
2022-09-30T20:15:17.549Z,56.17
2022-09-30T20:17:44.733Z,20.75
2022-09-30T20:20:30.735Z,35.40
2022-09-30T20:23:00.824Z,26.10
2022-09-30T20:25:30.615Z,23.55
2022-09-30T20:27:57.867Z,22.98
2022-09-30T20:30:26.971Z,43.83
2022-09-30T20:32:54.689Z,44.67
2022-09-30T20:35:22.353Z,52.08
2022-09-30T20:37:50.165Z,42.25
2022-09-30T20:40:17.394Z,35.10
2022-09-30T20:42:44.649Z,44.03
2022-09-30T20:45:12.068Z,80.28
2022-09-30T20:47:39.779Z,41.30
2022-09-30T20:50:07.317Z,43.47
2022-09-30T20:52:34.530Z,55.13
2022-09-30T20:55:01.683Z,56.05
2022-09-30T20:57:31.908Z,52.60
2022-09-30T21:00:00.140Z,49.90
2022-09-30T21:02:28.080Z,44.67
2022-09-30T21:04:57.622Z,41.28
2022-09-30T21:07:25.421Z,35.95
2022-09-30T21:09:52.723Z,38.17
2022-09-30T21:12:19.949Z,40.13
2022-09-30T21:14:47.208Z,42.00
2022-09-30T21:17:14.366Z,34.75
2022-09-30T21:19:41.518Z,32.38
2022-09-30T21:22:08.866Z,32.88
2022-09-30T21:24:36.019Z,36.20
2022-09-30T21:27:05.975Z,43.80
2022-09-30T21:29:33.476Z,35.72
2022-09-30T21:32:00.927Z,26.67
2022-09-30T21:34:28.222Z,23.42
2022-09-30T21:36:55.718Z,25.27
2022-09-30T21:39:22.911Z,29.05
2022-09-30T21:41:50.058Z,27.17
2022-09-30T21:44:17.466Z,24.00
2022-09-30T21:46:48.680Z,21.98
2022-09-30T21:49:19.738Z,24.45
2022-09-30T21:51:47.032Z,23.58
2022-09-30T21:54:14.198Z,24.83
2022-09-30T21:56:42.750Z,22.48
2022-09-30T21:59:10.180Z,23.80
2022-09-30T22:01:37.642Z,22.52
2022-09-30T22:04:05.213Z,19.90
2022-09-30T22:06:32.452Z,18.20
2022-09-30T22:09:02.822Z,21.00
2022-09-30T22:11:30.641Z,23.85
2022-09-30T22:13:58.290Z,24.48
2022-09-30T22:16:27.116Z,22.48
2022-09-30T22:18:55.184Z,23.23
2022-09-30T22:21:22.397Z,21.27
2022-09-30T22:23:49.606Z,22.60
2022-09-30T22:26:18.234Z,20.85
2022-09-30T22:28:45.886Z,18.55
2022-09-30T22:31:14.289Z,16.70
2022-09-30T22:34:00.483Z,17.85
2022-09-30T22:36:46.455Z,17.38
2022-09-30T22:39:13.668Z,18.17
2022-09-30T22:41:40.819Z,16.52
2022-09-30T22:44:08.295Z,16.77
2022-09-30T22:46:38.869Z,15.80
2022-09-30T22:49:06.198Z,15.23
2022-09-30T22:51:33.695Z,15.45
2022-09-30T22:54:01.361Z,14.88
2022-09-30T22:56:28.521Z,15.20
2022-09-30T22:58:55.764Z,14.15
2022-09-30T23:01:23.016Z,15.25
2022-09-30T23:03:56.564Z,14.57
2022-09-30T23:06:24.439Z,15.50
2022-09-30T23:08:51.848Z,15.45
2022-09-30T23:11:19.211Z,14.25
2022-09-30T23:13:46.902Z,15.05
2022-09-30T23:16:14.408Z,15.30
2022-09-30T23:18:41.655Z,18.05
2022-09-30T23:21:10.494Z,17.02
2022-09-30T23:23:37.994Z,19.02
2022-09-30T23:26:08.798Z,16.45
2022-09-30T23:28:36.011Z,16.60
2022-09-30T23:31:03.768Z,17.52
2022-09-30T23:33:31.026Z,17.40
2022-09-30T23:36:01.387Z,16.27
2022-09-30T23:38:28.611Z,16.98
2022-09-30T23:40:59.090Z,16.98
2022-09-30T23:43:31.375Z,16.83
2022-09-30T23:45:58.931Z,17.60
2022-09-30T23:48:26.133Z,19.40
2022-09-30T23:50:53.455Z,18.13
2022-09-30T23:53:21.211Z,18.80
2022-09-30T23:56:05.084Z,19.60
2022-09-30T23:58:35.366Z,18.65
